createdAt,value
2022-12-15T00:00:02.560Z,75.17
2022-12-15T00:02:49.746Z,77.17
2022-12-15T00:05:35.129Z,79.23
2022-12-15T00:08:30.710Z,72.80
2022-12-15T00:11:16.351Z,76.23
2022-12-15T00:14:02.363Z,75.10
2022-12-15T00:16:48.131Z,70.63
2022-12-15T00:19:35.680Z,77.50
2022-12-15T00:22:20.802Z,79.67
2022-12-15T00:25:06.458Z,73.27
2022-12-15T00:27:51.579Z,73.10
2022-12-15T00:30:37.218Z,72.30
2022-12-15T00:33:27.782Z,76.13
2022-12-15T00:36:17.851Z,74.83
2022-12-15T00:38:46.276Z,68.17
2022-12-15T00:41:15.840Z,72.83
2022-12-15T00:43:45.112Z,71.20
2022-12-15T00:46:30.660Z,73.90
2022-12-15T00:48:59.559Z,78.27
2022-12-15T00:51:46.534Z,74.70
2022-12-15T00:54:31.915Z,75.90
2022-12-15T00:57:17.228Z,70.67
2022-12-15T01:00:03.013Z,70.97
2022-12-15T01:02:48.455Z,68.37
2022-12-15T01:05:34.431Z,82.17
2022-12-15T01:08:21.322Z,72.83
2022-12-15T01:11:07.106Z,83.03
2022-12-15T01:13:52.428Z,76.27
2022-12-15T01:16:38.142Z,73.23
2022-12-15T01:19:23.675Z,60.53
2022-12-15T01:21:52.184Z,71.93
2022-12-15T01:24:21.507Z,79.30
2022-12-15T01:26:49.482Z,75.93
2022-12-15T01:29:17.822Z,80.77
2022-12-15T01:31:49.868Z,82.93
2022-12-15T01:34:20.284Z,76.47
2022-12-15T01:36:48.421Z,80.90
2022-12-15T01:39:16.929Z,72.90
2022-12-15T01:41:45.459Z,84.03
2022-12-15T01:44:21.216Z,74.97
2022-12-15T01:46:50.583Z,73.83
2022-12-15T01:49:24.725Z,74.73
2022-12-15T01:51:57.220Z,71.17
2022-12-15T01:54:29.464Z,72.77
2022-12-15T01:57:05.757Z,69.60
2022-12-15T01:59:36.914Z,73.67
2022-12-15T02:02:05.224Z,75.97
2022-12-15T02:04:35.158Z,77.83
2022-12-15T02:07:03.162Z,77.17
2022-12-15T02:09:31.450Z,74.67
2022-12-15T02:12:07.292Z,83.30
2022-12-15T02:14:52.599Z,72.60
2022-12-15T02:17:31.791Z,68.97
2022-12-15T02:20:24.980Z,75.43
2022-12-15T02:23:15.870Z,69.53
2022-12-15T02:26:11.412Z,70.60
2022-12-15T02:28:53.281Z,80.10
2022-12-15T02:31:49.792Z,72.80
2022-12-15T02:34:27.759Z,70.60
2022-12-15T02:36:59.583Z,78.27
2022-12-15T02:39:27.999Z,93.13
2022-12-15T02:41:56.070Z,74.70
2022-12-15T02:44:28.265Z,76.50
2022-12-15T02:47:21.075Z,76.53
2022-12-15T02:50:06.368Z,77.17
2022-12-15T02:52:46.075Z,72.83
2022-12-15T02:55:21.782Z,70.27
2022-12-15T02:58:00.462Z,74.27
2022-12-15T03:00:30.083Z,75.80
2022-12-15T03:03:00.090Z,69.10
2022-12-15T03:05:28.262Z,69.63
2022-12-15T03:07:56.109Z,66.77
2022-12-15T03:10:26.832Z,81.87
2022-12-15T03:12:55.986Z,71.33
2022-12-15T03:15:23.862Z,62.40
2022-12-15T03:17:52.226Z,71.37
2022-12-15T03:20:21.475Z,66.63
2022-12-15T03:22:49.794Z,71.23
2022-12-15T03:25:17.729Z,71.20
2022-12-15T03:27:47.479Z,71.83
2022-12-15T03:30:15.717Z,64.03
2022-12-15T03:32:43.660Z,69.50
2022-12-15T03:35:13.001Z,64.63
2022-12-15T03:37:42.971Z,66.83
2022-12-15T03:40:14.261Z,67.63
2022-12-15T03:42:50.649Z,66.90
2022-12-15T03:45:20.419Z,61.07
2022-12-15T03:47:49.099Z,73.80
2022-12-15T03:50:19.697Z,73.43
2022-12-15T03:52:52.043Z,76.60
2022-12-15T03:55:20.513Z,75.47
2022-12-15T03:57:48.996Z,71.30
2022-12-15T04:00:19.053Z,67.00
2022-12-15T04:02:47.469Z,75.17
2022-12-15T04:05:20.905Z,72.80
2022-12-15T04:07:50.245Z,74.70
2022-12-15T04:10:18.527Z,75.17
2022-12-15T04:12:46.947Z,75.07
2022-12-15T04:15:15.246Z,77.03
2022-12-15T04:17:43.401Z,69.47
2022-12-15T04:20:11.650Z,69.17
2022-12-15T04:22:40.991Z,71.07
2022-12-15T04:25:31.040Z,75.60
2022-12-15T04:28:18.004Z,64.33
2022-12-15T04:31:08.591Z,72.13
2022-12-15T04:33:55.304Z,77.30
2022-12-15T04:36:42.165Z,77.17
2022-12-15T04:39:27.412Z,76.27
2022-12-15T04:42:17.387Z,79.20
2022-12-15T04:45:02.665Z,74.73
2022-12-15T04:47:48.440Z,67.30
2022-12-15T04:50:33.836Z,69.83
2022-12-15T04:53:27.429Z,75.53
2022-12-15T04:56:18.266Z,73.90
2022-12-15T04:59:07.274Z,70.83
2022-12-15T05:01:53.152Z,62.37
2022-12-15T05:04:39.042Z,73.33
2022-12-15T05:07:24.614Z,66.17
2022-12-15T05:10:14.929Z,65.10
2022-12-15T05:13:00.786Z,59.90
2022-12-15T05:15:48.047Z,79.10
2022-12-15T05:18:33.343Z,60.23
2022-12-15T05:21:18.466Z,60.07
2022-12-15T05:24:03.611Z,68.50
2022-12-15T05:26:53.070Z,64.50
2022-12-15T05:29:39.024Z,65.47
2022-12-15T05:32:09.097Z,98.03
2022-12-15T05:34:37.925Z,100.50
2022-12-15T05:37:07.948Z,102.90
2022-12-15T05:39:36.820Z,97.20
2022-12-15T05:42:05.007Z,90.50
2022-12-15T05:44:32.966Z,80.03
2022-12-15T05:47:00.887Z,80.10
2022-12-15T05:49:30.219Z,74.03
2022-12-15T05:51:58.609Z,73.93
2022-12-15T05:54:26.879Z,67.60
2022-12-15T05:56:54.817Z,85.60
2022-12-15T05:59:23.150Z,75.70
2022-12-15T06:01:51.186Z,69.33
2022-12-15T06:04:19.711Z,76.33
2022-12-15T06:06:49.548Z,68.20
2022-12-15T06:09:17.642Z,76.90
2022-12-15T06:11:45.780Z,79.73
2022-12-15T06:14:14.337Z,73.00
2022-12-15T06:16:51.078Z,68.53
2022-12-15T06:19:19.464Z,76.90
2022-12-15T06:21:48.779Z,76.20
2022-12-15T06:24:16.969Z,73.20
2022-12-15T06:26:45.809Z,70.50
2022-12-15T06:29:14.459Z,73.30
2022-12-15T06:31:43.788Z,70.73
2022-12-15T06:34:14.269Z,78.83
2022-12-15T06:36:42.417Z,69.70
2022-12-15T06:39:15.698Z,76.40
2022-12-15T06:41:44.498Z,85.07
2022-12-15T06:44:17.070Z,79.23
2022-12-15T06:46:46.210Z,92.53
2022-12-15T06:49:14.934Z,85.77
2022-12-15T06:51:44.454Z,84.37
2022-12-15T06:54:14.251Z,83.53
2022-12-15T06:56:43.550Z,70.97
2022-12-15T06:59:13.301Z,70.37
2022-12-15T07:01:41.839Z,65.87
2022-12-15T07:04:11.422Z,85.30
2022-12-15T07:06:40.869Z,74.93
2022-12-15T07:09:12.717Z,88.20
2022-12-15T07:11:42.746Z,78.77
2022-12-15T07:14:11.207Z,71.47
2022-12-15T07:16:39.772Z,68.37
2022-12-15T07:19:07.630Z,64.60
2022-12-15T07:21:35.718Z,69.90
2022-12-15T07:24:04.343Z,77.03
2022-12-15T07:26:32.591Z,73.47
2022-12-15T07:29:02.065Z,64.23
2022-12-15T07:31:31.894Z,71.73
2022-12-15T07:34:00.506Z,68.87
2022-12-15T07:36:28.748Z,75.80
2022-12-15T07:39:09.526Z,76.80
2022-12-15T07:41:40.544Z,84.73
2022-12-15T07:44:10.403Z,71.97
2022-12-15T07:46:38.553Z,79.60
2022-12-15T07:49:06.807Z,71.00
2022-12-15T07:51:34.915Z,76.47
2022-12-15T07:54:02.849Z,73.93
2022-12-15T07:56:34.518Z,69.43
2022-12-15T07:59:10.809Z,71.77
2022-12-15T08:01:40.424Z,74.20
2022-12-15T08:04:09.056Z,65.83
2022-12-15T08:06:37.232Z,67.20
2022-12-15T08:09:05.117Z,72.50
2022-12-15T08:11:35.774Z,64.13
2022-12-15T08:14:07.001Z,74.93
2022-12-15T08:16:40.749Z,71.37
2022-12-15T08:19:12.770Z,68.43
2022-12-15T08:21:41.549Z,73.00
2022-12-15T08:24:09.921Z,62.43
2022-12-15T08:26:40.730Z,61.87
2022-12-15T08:29:49.395Z,74.53
2022-12-15T08:32:00.308Z,75.20
2022-12-15T08:34:29.146Z,62.60
2022-12-15T08:36:57.256Z,76.87
2022-12-15T08:39:25.377Z,74.83
2022-12-15T08:41:53.525Z,71.07
2022-12-15T08:44:30.007Z,97.83
2022-12-15T08:47:00.304Z,81.47
2022-12-15T08:49:28.517Z,71.30
2022-12-15T08:51:56.752Z,78.60
2022-12-15T08:54:25.368Z,74.93
2022-12-15T08:56:53.741Z,66.93
2022-12-15T08:59:22.358Z,64.87
2022-12-15T09:01:50.773Z,73.20
2022-12-15T09:04:20.496Z,72.80
2022-12-15T09:06:50.892Z,76.30
2022-12-15T09:09:19.462Z,74.87
2022-12-15T09:11:47.515Z,68.37
2022-12-15T09:14:15.969Z,78.17
2022-12-15T09:16:44.074Z,77.33
2022-12-15T09:19:12.096Z,75.93
2022-12-15T09:21:45.681Z,70.47
2022-12-15T09:24:24.674Z,71.47
2022-12-15T09:26:57.975Z,73.03
2022-12-15T09:29:25.991Z,77.17
2022-12-15T09:31:54.043Z,71.83
2022-12-15T09:34:22.311Z,67.83
2022-12-15T09:36:51.821Z,62.93
2022-12-15T09:39:20.256Z,63.03
2022-12-15T09:41:55.911Z,69.67
2022-12-15T09:44:26.847Z,69.80
2022-12-15T09:47:07.137Z,63.92
2022-12-15T09:49:49.708Z,59.40
2022-12-15T09:52:22.771Z,65.80
2022-12-15T09:54:51.046Z,66.05
2022-12-15T09:57:33.530Z,64.27
2022-12-15T10:00:13.241Z,66.03
2022-12-15T10:03:07.233Z,64.15
2022-12-15T10:06:06.823Z,72.97
2022-12-15T10:08:36.853Z,62.40
2022-12-15T10:11:07.681Z,63.70
2022-12-15T10:13:44.175Z,59.97
2022-12-15T10:16:21.854Z,56.70
2022-12-15T10:19:02.219Z,65.88
2022-12-15T10:21:32.483Z,63.72
2022-12-15T10:24:14.465Z,64.10
2022-12-15T10:26:44.205Z,63.05
2022-12-15T10:29:24.493Z,66.05
2022-12-15T10:31:55.491Z,60.17
2022-12-15T10:34:29.917Z,69.90
2022-12-15T10:36:58.988Z,62.65
2022-12-15T10:39:41.262Z,63.47
2022-12-15T10:42:18.199Z,68.53
2022-12-15T10:44:50.641Z,62.00
2022-12-15T10:47:22.880Z,66.50
2022-12-15T10:49:52.029Z,67.18
2022-12-15T10:52:32.767Z,73.07
2022-12-15T10:55:02.425Z,66.95
2022-12-15T10:57:32.096Z,61.70
2022-12-15T11:00:29.130Z,72.93
2022-12-15T11:02:58.576Z,58.13
2022-12-15T11:05:27.731Z,63.22
2022-12-15T11:07:58.073Z,58.03
2022-12-15T11:10:50.207Z,68.68
2022-12-15T11:13:19.107Z,65.80
2022-12-15T11:15:50.882Z,56.53
2022-12-15T11:18:32.397Z,58.08
2022-12-15T11:21:05.872Z,55.30
2022-12-15T11:23:48.914Z,56.00
2022-12-15T11:26:31.281Z,49.80
2022-12-15T11:29:03.626Z,56.67
2022-12-15T11:31:36.288Z,53.85
2022-12-15T11:34:05.413Z,58.10
2022-12-15T11:36:55.452Z,52.15
2022-12-15T11:39:36.822Z,59.92
2022-12-15T11:42:15.881Z,57.25
2022-12-15T11:44:53.226Z,67.68
2022-12-15T11:47:32.347Z,51.78
2022-12-15T11:50:16.473Z,59.22
2022-12-15T11:53:04.678Z,49.35
2022-12-15T11:55:42.206Z,57.92
2022-12-15T12:04:56.978Z,62.63
2022-12-15T12:07:42.632Z,61.85
2022-12-15T12:10:33.101Z,57.85
2022-12-15T12:13:12.871Z,55.47
2022-12-15T12:15:57.548Z,67.82
2022-12-15T12:18:41.296Z,61.75
2022-12-15T12:21:15.567Z,63.30
2022-12-15T12:23:51.960Z,56.67
2022-12-15T12:26:29.624Z,59.05
2022-12-15T12:29:13.048Z,63.22
2022-12-15T12:31:52.101Z,61.70
2022-12-15T12:34:29.072Z,67.22
2022-12-15T12:37:16.920Z,67.57
2022-12-15T12:39:47.418Z,62.83
2022-12-15T12:42:22.837Z,64.28
2022-12-15T12:44:52.007Z,61.85
2022-12-15T12:47:25.769Z,61.28
2022-12-15T12:50:01.059Z,56.10
2022-12-15T12:52:34.624Z,62.67
2022-12-15T12:55:14.523Z,59.38
2022-12-15T12:57:44.543Z,57.53
2022-12-15T13:00:21.988Z,65.93
2022-12-15T13:03:17.752Z,58.60
2022-12-15T13:05:50.404Z,60.65
2022-12-15T13:08:55.986Z,59.90
2022-12-15T13:12:20.621Z,65.97
2022-12-15T13:14:51.682Z,60.42
2022-12-15T13:17:53.042Z,60.88
2022-12-15T13:20:28.378Z,59.35
2022-12-15T13:23:25.128Z,65.85
2022-12-15T13:26:13.365Z,69.65
2022-12-15T13:28:47.083Z,68.93
2022-12-15T13:31:49.949Z,66.47
2022-12-15T13:34:30.057Z,62.03
2022-12-15T13:37:03.622Z,65.18
2022-12-15T13:40:02.494Z,63.72
2022-12-15T13:42:38.731Z,60.70
2022-12-15T13:45:41.089Z,55.33
2022-12-15T13:48:21.097Z,60.47
2022-12-15T13:50:56.515Z,61.05
2022-12-15T13:53:28.092Z,57.55
2022-12-15T13:56:08.099Z,78.20
2022-12-15T13:58:42.737Z,80.85
2022-12-15T14:04:15.682Z,64.13
2022-12-15T14:06:50.816Z,58.30
2022-12-15T14:09:26.707Z,50.88
2022-12-15T14:11:54.983Z,52.05
2022-12-15T14:14:29.434Z,51.97
2022-12-15T14:17:01.214Z,47.55
2022-12-15T14:19:39.363Z,53.22
2022-12-15T14:22:27.645Z,51.33
2022-12-15T14:25:04.958Z,53.17
2022-12-15T14:27:34.952Z,51.80
2022-12-15T14:30:24.131Z,45.13
2022-12-15T14:32:58.295Z,50.55
2022-12-15T14:35:31.301Z,51.85
2022-12-15T14:38:03.771Z,52.00
2022-12-15T14:40:37.635Z,52.25
2022-12-15T14:43:07.930Z,51.65
2022-12-15T14:45:36.533Z,53.92
2022-12-15T14:48:40.101Z,50.72
2022-12-15T14:51:01.713Z,54.80
2022-12-15T14:53:34.868Z,50.03
2022-12-15T14:56:30.392Z,48.90
2022-12-15T14:59:04.896Z,44.17
2022-12-15T15:01:37.559Z,44.28
2022-12-15T15:03:05.768Z,71.53
2022-12-15T15:03:06.971Z,58.08
2022-12-15T15:03:07.046Z,64.32
2022-12-15T15:04:07.589Z,47.38
2022-12-15T15:06:41.199Z,52.67
2022-12-15T15:09:26.618Z,44.30
2022-12-15T15:11:58.287Z,45.10
2022-12-15T15:14:30.295Z,48.03
2022-12-15T15:17:09.628Z,46.75
2022-12-15T15:19:41.009Z,52.35
2022-12-15T15:22:27.387Z,46.20
2022-12-15T15:24:57.244Z,52.55
2022-12-15T15:27:33.912Z,53.53
2022-12-15T15:30:16.859Z,47.22
2022-12-15T15:32:57.084Z,45.47
2022-12-15T15:35:31.495Z,44.42
2022-12-15T15:38:05.404Z,48.30
2022-12-15T15:40:33.437Z,56.58
2022-12-15T15:43:03.798Z,51.45
2022-12-15T15:45:32.032Z,47.38
2022-12-15T15:48:00.659Z,48.90
2022-12-15T15:50:32.753Z,44.08
2022-12-15T15:53:00.928Z,51.35
2022-12-15T15:55:39.710Z,47.88
2022-12-15T15:58:15.973Z,46.95
2022-12-15T16:09:50.379Z,50.53
2022-12-15T16:12:28.030Z,50.60
2022-12-15T16:14:59.479Z,40.65
2022-12-15T16:17:28.195Z,48.95
2022-12-15T16:19:56.508Z,51.13
2022-12-15T16:22:24.968Z,47.25
2022-12-15T16:24:53.616Z,41.95
2022-12-15T16:27:23.513Z,52.72
2022-12-15T16:29:54.230Z,48.58
2022-12-15T16:32:23.808Z,58.28
2022-12-15T16:34:53.610Z,58.47
2022-12-15T16:37:39.658Z,57.20
2022-12-15T16:40:25.310Z,60.63
2022-12-15T16:42:56.777Z,52.28
2022-12-15T16:45:27.166Z,55.92
2022-12-15T16:47:57.838Z,60.72
2022-12-15T16:50:30.760Z,58.70
2022-12-15T16:53:00.271Z,52.35
2022-12-15T16:55:31.728Z,49.92
2022-12-15T16:58:05.354Z,53.42
2022-12-15T17:00:37.435Z,51.95
2022-12-15T17:03:07.901Z,47.92
2022-12-15T17:05:37.619Z,56.00
2022-12-15T17:08:07.481Z,52.97
2022-12-15T17:10:36.235Z,57.42
2022-12-15T17:13:07.396Z,70.85
2022-12-15T17:15:36.674Z,63.63
2022-12-15T17:18:07.652Z,59.80
2022-12-15T17:20:35.531Z,58.55
2022-12-15T17:23:07.431Z,71.00
2022-12-15T17:26:18.144Z,64.05
2022-12-15T17:28:32.940Z,67.03
2022-12-15T17:31:01.024Z,53.55
2022-12-15T17:33:32.940Z,56.70
2022-12-15T17:36:02.934Z,65.05
2022-12-15T17:38:31.368Z,56.70
2022-12-15T17:40:59.445Z,56.45
2022-12-15T17:43:35.187Z,59.60
2022-12-15T17:46:04.159Z,54.35
2022-12-15T17:48:33.478Z,64.25
2022-12-15T17:51:01.462Z,47.38
2022-12-15T17:53:30.874Z,49.83
2022-12-15T17:55:58.945Z,48.33
2022-12-15T17:58:28.250Z,85.47
2022-12-15T18:00:58.055Z,49.67
2022-12-15T18:03:26.040Z,74.50
2022-12-15T18:05:55.326Z,63.05
2022-12-15T18:08:26.401Z,65.55
2022-12-15T18:10:57.387Z,63.50
2022-12-15T18:13:30.307Z,63.35
2022-12-15T18:16:02.950Z,68.20
2022-12-15T18:18:39.628Z,56.55
2022-12-15T18:21:22.503Z,55.63
2022-12-15T18:23:52.517Z,61.58
2022-12-15T18:26:33.426Z,62.20
2022-12-15T18:29:01.859Z,53.33
2022-12-15T18:31:32.934Z,56.50
2022-12-15T18:34:05.004Z,56.55
2022-12-15T18:39:29.213Z,61.72
2022-12-15T18:42:10.349Z,54.88
2022-12-15T18:44:38.201Z,54.63
2022-12-15T18:47:20.505Z,56.60
2022-12-15T18:49:48.737Z,59.55
2022-12-15T18:52:20.065Z,53.25
2022-12-15T18:54:48.498Z,53.58
2022-12-15T18:57:30.635Z,55.45
2022-12-15T19:00:00.169Z,58.10
2022-12-15T19:02:28.355Z,57.58
2022-12-15T19:04:58.274Z,57.97
2022-12-15T19:07:28.911Z,61.17
2022-12-15T19:09:56.950Z,62.55
2022-12-15T19:12:28.094Z,64.75
2022-12-15T19:14:55.909Z,63.25
2022-12-15T19:17:42.972Z,60.45
2022-12-15T19:20:34.818Z,61.30
2022-12-15T19:23:04.645Z,62.67
2022-12-15T19:25:33.590Z,74.38
2022-12-15T19:28:02.255Z,66.47
2022-12-15T19:30:40.212Z,59.83
2022-12-15T19:33:10.849Z,65.32
2022-12-15T19:35:42.352Z,63.45
2022-12-15T19:38:21.326Z,55.35
2022-12-15T19:40:53.227Z,65.18
2022-12-15T19:43:22.720Z,59.92
2022-12-15T19:45:51.912Z,63.85
2022-12-15T19:48:23.638Z,63.53
2022-12-15T19:50:55.719Z,65.40
2022-12-15T19:53:28.582Z,56.58
2022-12-15T19:56:01.823Z,65.43
2022-12-15T19:58:31.785Z,64.32
2022-12-15T20:01:03.433Z,72.40
2022-12-15T20:03:32.265Z,67.13
2022-12-15T20:06:03.108Z,67.10
2022-12-15T20:08:36.817Z,65.47
2022-12-15T20:11:05.151Z,67.60
2022-12-15T20:13:33.381Z,81.70
2022-12-15T20:16:02.055Z,70.93
2022-12-15T20:18:30.309Z,66.70
2022-12-15T20:20:59.412Z,67.75
2022-12-15T20:23:32.332Z,68.82
2022-12-15T20:26:02.246Z,82.05
2022-12-15T20:28:34.055Z,80.82
2022-12-15T20:31:03.213Z,63.97
2022-12-15T20:33:31.619Z,60.80
2022-12-15T20:36:00.259Z,64.85
2022-12-15T20:38:31.502Z,65.47
2022-12-15T20:41:03.815Z,52.53
2022-12-15T20:43:36.127Z,65.32
2022-12-15T20:46:19.104Z,58.53
2022-12-15T20:48:54.395Z,70.55
2022-12-15T20:51:27.543Z,75.07
2022-12-15T20:53:57.859Z,74.10
2022-12-15T20:56:28.066Z,71.32
2022-12-15T20:58:58.060Z,80.70
2022-12-15T21:01:28.297Z,67.20
2022-12-15T21:04:25.906Z,76.05
2022-12-15T21:06:56.793Z,72.50
2022-12-15T21:09:25.711Z,74.32
2022-12-15T21:11:55.785Z,69.40
2022-12-15T21:14:26.576Z,69.00
2022-12-15T21:16:54.499Z,67.22
2022-12-15T21:19:23.268Z,73.43
2022-12-15T21:21:55.969Z,73.68
2022-12-15T21:24:26.306Z,69.28
2022-12-15T21:27:01.515Z,70.57
2022-12-15T21:29:29.866Z,62.42
2022-12-15T21:31:57.659Z,56.25
2022-12-15T21:34:26.708Z,61.35
2022-12-15T21:36:55.644Z,59.83
2022-12-15T21:39:25.997Z,62.03
2022-12-15T21:41:57.504Z,59.92
2022-12-15T21:44:25.519Z,65.22
2022-12-15T21:46:55.615Z,64.43
2022-12-15T21:49:22.487Z,67.82
2022-12-15T21:51:53.550Z,65.45
2022-12-15T21:54:30.770Z,67.63
2022-12-15T21:57:01.307Z,63.38
2022-12-15T21:59:30.864Z,61.95
2022-12-15T22:02:00.455Z,67.45
2022-12-15T22:04:33.996Z,53.15
2022-12-15T22:07:02.209Z,59.58
2022-12-15T22:09:30.275Z,60.72
2022-12-15T22:11:58.327Z,61.00
2022-12-15T22:14:29.827Z,64.15
2022-12-15T22:16:58.722Z,61.03
2022-12-15T22:19:26.534Z,55.92
2022-12-15T22:21:54.467Z,55.03
2022-12-15T22:24:22.864Z,61.75
2022-12-15T22:26:51.190Z,57.53
2022-12-15T22:29:20.599Z,59.15
2022-12-15T22:31:50.794Z,65.33
2022-12-15T22:34:21.925Z,68.85
2022-12-15T22:36:50.898Z,58.10
2022-12-15T22:39:20.181Z,63.45
2022-12-15T22:41:50.435Z,61.07
2022-12-15T22:44:22.771Z,61.95
2022-12-15T22:46:54.224Z,57.70
2022-12-15T22:49:25.287Z,65.43
2022-12-15T22:51:53.068Z,74.13
2022-12-15T22:54:25.052Z,69.97
2022-12-15T22:56:58.359Z,63.58
2022-12-15T22:59:32.079Z,63.40
2022-12-15T23:02:03.712Z,67.43
2022-12-15T23:04:33.530Z,68.57
2022-12-15T23:07:04.758Z,65.77
2022-12-15T23:09:32.746Z,64.80
2022-12-15T23:11:59.870Z,63.17
2022-12-15T23:14:41.580Z,65.60
2022-12-15T23:17:12.309Z,65.45
2022-12-15T23:19:45.011Z,64.03
2022-12-15T23:22:12.951Z,63.73
2022-12-15T23:24:40.795Z,63.72
2022-12-15T23:27:11.326Z,68.88
2022-12-15T23:29:39.601Z,66.43
2022-12-15T23:32:07.587Z,63.50
2022-12-15T23:34:37.571Z,64.50
2022-12-15T23:37:05.857Z,64.40
2022-12-15T23:39:33.680Z,64.03
2022-12-15T23:42:01.724Z,59.63
2022-12-15T23:44:30.602Z,67.78
2022-12-15T23:46:58.574Z,63.77
2022-12-15T23:49:26.506Z,63.33
2022-12-15T23:51:56.148Z,55.67
2022-12-15T23:54:24.155Z,63.87
2022-12-15T23:56:52.156Z,62.80
2022-12-15T23:59:22.989Z,58.78
